createdAt,value
2019-01-14T00:00:48.731Z,0.00
2019-01-14T00:01:48.643Z,0.00
2019-01-14T00:02:48.556Z,0.00
2019-01-14T00:03:48.731Z,0.00
2019-01-14T00:04:55.283Z,0.00
2019-01-14T00:05:48.295Z,0.00
2019-01-14T00:06:48.219Z,0.00
2019-01-14T00:07:48.130Z,0.00
2019-01-14T00:08:48.065Z,0.00
2019-01-14T00:09:47.958Z,0.00
2019-01-14T00:10:47.869Z,0.00
2019-01-14T00:11:47.786Z,0.00
2019-01-14T00:12:47.706Z,0.00
2019-01-14T00:13:47.620Z,0.00
2019-01-14T00:14:47.532Z,0.00
2019-01-14T00:15:47.446Z,0.00
2019-01-14T00:16:47.358Z,0.00
2019-01-14T00:17:47.282Z,0.00
2019-01-14T00:18:47.203Z,0.00
2019-01-14T00:19:47.110Z,0.00
2019-01-14T00:20:47.021Z,0.00
2019-01-14T00:21:46.932Z,0.00
2019-01-14T00:22:46.849Z,0.00
2019-01-14T00:23:46.771Z,0.00
2019-01-14T00:24:46.683Z,0.00
2019-01-14T00:25:46.596Z,0.00
2019-01-14T00:26:46.509Z,0.00
2019-01-14T00:27:46.420Z,0.00
2019-01-14T00:28:46.347Z,0.00
2019-01-14T00:29:46.258Z,0.00
2019-01-14T00:30:46.172Z,0.00
2019-01-14T00:31:46.090Z,0.00
2019-01-14T00:32:46.000Z,0.00
2019-01-14T00:33:45.909Z,0.00
2019-01-14T00:34:45.834Z,0.00
2019-01-14T00:35:45.749Z,0.00
2019-01-14T00:36:45.659Z,0.00
2019-01-14T00:37:45.577Z,0.00
2019-01-14T00:38:45.485Z,0.00
2019-01-14T00:39:45.398Z,0.00
2019-01-14T00:40:45.324Z,0.00
2019-01-14T00:41:45.234Z,0.00
2019-01-14T00:42:45.148Z,0.00
2019-01-14T00:43:45.060Z,0.00
2019-01-14T00:44:44.973Z,0.00
2019-01-14T00:45:44.885Z,0.00
2019-01-14T00:46:44.811Z,0.00
2019-01-14T00:47:44.725Z,0.00
2019-01-14T00:48:44.635Z,0.00
2019-01-14T00:49:44.550Z,0.00
2019-01-14T00:50:44.461Z,0.00
2019-01-14T00:51:44.375Z,0.00
2019-01-14T00:52:44.299Z,0.00
2019-01-14T00:53:44.213Z,0.00
2019-01-14T00:54:44.124Z,0.00
2019-01-14T00:55:44.036Z,0.00
2019-01-14T00:56:43.951Z,0.00
2019-01-14T00:57:43.862Z,0.00
2019-01-14T00:58:43.787Z,0.00
2019-01-14T00:59:43.700Z,0.00
2019-01-14T01:00:43.612Z,0.00
2019-01-14T01:01:43.525Z,0.00
2019-01-14T01:02:43.450Z,0.00
2019-01-14T01:03:43.362Z,0.00
2019-01-14T01:04:43.275Z,0.00
2019-01-14T01:05:43.201Z,0.00
2019-01-14T01:06:43.117Z,0.00
2019-01-14T01:07:43.014Z,0.00
2019-01-14T01:08:42.948Z,0.00
2019-01-14T01:09:42.839Z,0.00
2019-01-14T01:10:42.763Z,0.00
2019-01-14T01:11:42.675Z,0.00
2019-01-14T01:12:42.588Z,0.00
2019-01-14T01:13:42.501Z,0.00
2019-01-14T01:14:42.413Z,0.00
2019-01-14T01:15:42.364Z,0.00
2019-01-14T01:16:42.252Z,0.00
2019-01-14T01:17:42.163Z,0.00
2019-01-14T01:18:42.082Z,0.00
2019-01-14T01:19:41.989Z,0.00
2019-01-14T01:20:41.901Z,0.00
2019-01-14T01:21:41.826Z,0.00
2019-01-14T01:22:41.751Z,0.00
2019-01-14T01:23:41.652Z,0.00
2019-01-14T01:24:41.564Z,0.00
2019-01-14T01:25:41.480Z,0.00
2019-01-14T01:26:41.390Z,0.00
2019-01-14T01:27:41.319Z,0.00
2019-01-14T01:28:41.227Z,0.00
2019-01-14T01:29:41.144Z,0.00
2019-01-14T01:30:41.054Z,0.00
2019-01-14T01:31:40.968Z,0.00
2019-01-14T01:32:40.878Z,0.00
2019-01-14T01:33:40.792Z,0.00
2019-01-14T01:34:40.715Z,0.00
2019-01-14T01:35:40.629Z,0.00
2019-01-14T01:36:40.541Z,0.00
2019-01-14T01:37:40.454Z,0.00
2019-01-14T01:38:40.379Z,0.00
2019-01-14T01:39:40.280Z,0.00
2019-01-14T01:40:40.204Z,0.00
2019-01-14T01:41:40.116Z,0.00
2019-01-14T01:42:40.031Z,0.00
2019-01-14T01:43:39.942Z,0.00
2019-01-14T01:44:39.855Z,0.00
2019-01-14T01:45:39.767Z,0.00
2019-01-14T01:46:39.692Z,0.00
2019-01-14T01:47:39.604Z,0.00
2019-01-14T01:48:39.516Z,0.00
2019-01-14T01:49:39.430Z,0.00
2019-01-14T01:50:39.342Z,0.00
2019-01-14T01:51:39.254Z,0.00
2019-01-14T01:52:39.169Z,0.00
2019-01-14T01:53:39.094Z,0.00
2019-01-14T01:54:39.009Z,0.00
2019-01-14T01:55:38.917Z,0.00
2019-01-14T01:56:38.830Z,0.00
2019-01-14T01:57:38.742Z,0.00
2019-01-14T01:58:38.658Z,0.00
2019-01-14T01:59:38.569Z,0.00
2019-01-14T02:00:38.493Z,0.00
2019-01-14T02:01:38.406Z,0.00
2019-01-14T02:02:38.321Z,0.00
2019-01-14T02:03:38.231Z,0.00
2019-01-14T02:04:38.144Z,0.00
2019-01-14T02:05:38.057Z,0.00
2019-01-14T02:06:39.282Z,0.00
2019-01-14T02:07:37.893Z,0.00
2019-01-14T02:08:38.065Z,0.00
2019-01-14T02:09:37.732Z,0.00
2019-01-14T02:10:37.632Z,0.00
2019-01-14T02:11:37.544Z,0.00
2019-01-14T02:12:37.458Z,0.00
2019-01-14T02:13:37.369Z,0.00
2019-01-14T02:14:37.294Z,0.00
2019-01-14T02:15:37.208Z,0.00
2019-01-14T02:16:37.119Z,0.00
2019-01-14T02:17:37.034Z,0.00
2019-01-14T02:18:36.944Z,0.00
2019-01-14T02:19:36.863Z,0.00
2019-01-14T02:20:36.770Z,0.00
2019-01-14T02:21:36.696Z,0.00
2019-01-14T02:22:36.608Z,0.00
2019-01-14T02:23:36.770Z,0.00
2019-01-14T02:24:36.434Z,0.00
2019-01-14T02:25:36.358Z,0.00
2019-01-14T02:26:36.259Z,0.00
2019-01-14T02:27:36.173Z,0.00
2019-01-14T02:28:36.096Z,0.00
2019-01-14T02:29:36.010Z,0.00
2019-01-14T02:30:35.922Z,0.00
2019-01-14T02:31:35.834Z,0.00
2019-01-14T02:32:35.747Z,0.00
2019-01-14T02:33:35.660Z,0.00
2019-01-14T02:34:35.573Z,0.00
2019-01-14T02:35:35.497Z,0.00
2019-01-14T02:36:35.411Z,0.00
2019-01-14T02:37:35.323Z,0.00
2019-01-14T02:38:35.236Z,0.00
2019-01-14T02:39:35.147Z,0.00
2019-01-14T02:40:35.059Z,0.00
2019-01-14T02:41:34.974Z,0.00
2019-01-14T02:42:34.886Z,0.00
2019-01-14T02:43:35.061Z,0.00
2019-01-14T02:44:34.724Z,0.00
2019-01-14T02:45:34.637Z,0.00
2019-01-14T02:46:34.548Z,0.00
2019-01-14T02:47:34.461Z,0.00
2019-01-14T02:48:34.374Z,0.00
2019-01-14T02:49:34.287Z,0.00
2019-01-14T02:50:34.211Z,0.00
2019-01-14T02:51:34.124Z,0.00
2019-01-14T02:52:39.563Z,0.00
2019-01-14T02:53:33.949Z,0.00
2019-01-14T02:54:33.866Z,0.00
2019-01-14T02:55:33.774Z,0.00
2019-01-14T02:56:33.700Z,0.00
2019-01-14T02:57:33.612Z,0.00
2019-01-14T02:58:33.537Z,0.00
2019-01-14T02:59:33.437Z,0.00
2019-01-14T03:00:33.349Z,0.00
2019-01-14T03:01:33.265Z,0.00
2019-01-14T03:02:33.176Z,0.00
2019-01-14T03:03:33.109Z,0.00
2019-01-14T03:04:33.013Z,0.00
2019-01-14T03:05:32.937Z,0.00
2019-01-14T03:06:32.838Z,0.00
2019-01-14T03:07:32.750Z,0.00
2019-01-14T03:08:32.664Z,0.00
2019-01-14T03:09:32.575Z,0.00
2019-01-14T03:10:32.500Z,0.00
2019-01-14T03:11:32.413Z,0.00
2019-01-14T03:12:32.329Z,0.00
2019-01-14T03:13:32.240Z,0.00
2019-01-14T03:14:32.150Z,0.00
2019-01-14T03:15:32.064Z,0.00
2019-01-14T03:16:31.989Z,0.00
2019-01-14T03:17:31.901Z,0.00
2019-01-14T03:18:31.816Z,0.00
2019-01-14T03:19:31.726Z,0.00
2019-01-14T03:20:31.640Z,0.00
2019-01-14T03:21:31.551Z,0.00
2019-01-14T03:22:31.466Z,0.00
2019-01-14T03:23:31.377Z,0.00
2019-01-14T03:24:31.301Z,0.00
2019-01-14T03:25:31.217Z,0.00
2019-01-14T03:26:31.127Z,0.00
2019-01-14T03:27:31.051Z,0.00
2019-01-14T03:28:30.952Z,0.00
2019-01-14T03:29:30.866Z,0.00
2019-01-14T03:30:30.780Z,0.00
2019-01-14T03:31:30.703Z,0.00
2019-01-14T03:32:30.618Z,0.00
2019-01-14T03:33:30.529Z,0.00
2019-01-14T03:34:30.441Z,0.00
2019-01-14T03:35:30.359Z,0.00
2019-01-14T03:36:30.278Z,0.00
2019-01-14T03:37:30.179Z,0.00
2019-01-14T03:38:30.106Z,0.00
2019-01-14T03:39:30.017Z,0.00
2019-01-14T03:40:29.928Z,0.00
2019-01-14T03:41:29.842Z,0.00
2019-01-14T03:42:29.754Z,0.00
2019-01-14T03:43:29.668Z,0.00
2019-01-14T03:44:29.591Z,0.00
2019-01-14T03:45:29.504Z,0.00
2019-01-14T03:46:29.417Z,0.00
2019-01-14T03:47:29.333Z,0.00
2019-01-14T03:48:29.243Z,0.00
2019-01-14T03:49:29.153Z,0.00
2019-01-14T03:50:29.068Z,0.00
2019-01-14T03:51:28.981Z,0.00
2019-01-14T03:52:28.905Z,0.00
2019-01-14T03:53:28.819Z,0.00
2019-01-14T03:54:28.732Z,0.00
2019-01-14T03:55:28.644Z,0.00
2019-01-14T03:56:28.568Z,0.00
2019-01-14T03:57:28.468Z,0.00
2019-01-14T03:58:28.382Z,0.00
2019-01-14T03:59:28.307Z,0.00
2019-01-14T04:00:28.219Z,0.00
2019-01-14T04:01:28.130Z,0.00
2019-01-14T04:02:28.053Z,0.00
2019-01-14T04:03:27.957Z,0.00
2019-01-14T04:04:27.874Z,0.00
2019-01-14T04:05:27.792Z,0.00
2019-01-14T04:06:27.706Z,0.00
2019-01-14T04:07:27.620Z,0.00
2019-01-14T04:08:27.530Z,0.00
2019-01-14T04:09:27.447Z,0.00
2019-01-14T04:10:27.356Z,0.00
2019-01-14T04:11:27.270Z,0.00
2019-01-14T04:12:27.194Z,0.00
2019-01-14T04:13:27.108Z,0.00
2019-01-14T04:14:27.025Z,0.00
2019-01-14T04:15:26.933Z,0.00
2019-01-14T04:16:26.845Z,0.00
2019-01-14T04:17:26.757Z,0.00
2019-01-14T04:18:27.020Z,0.00
2019-01-14T04:19:26.582Z,0.00
2019-01-14T04:20:26.509Z,0.00
2019-01-14T04:21:26.422Z,0.00
2019-01-14T04:22:26.333Z,0.00
2019-01-14T04:23:26.246Z,0.00
2019-01-14T04:24:26.158Z,0.00
2019-01-14T04:25:26.076Z,0.00
2019-01-14T04:26:25.984Z,0.00
2019-01-14T04:27:25.898Z,0.00
2019-01-14T04:28:25.810Z,0.00
2019-01-14T04:29:25.734Z,0.00
2019-01-14T04:30:25.646Z,0.00
2019-01-14T04:31:25.560Z,0.00
2019-01-14T04:32:25.473Z,0.00
2019-01-14T04:33:25.384Z,0.00
2019-01-14T04:34:25.299Z,0.00
2019-01-14T04:35:25.209Z,0.00
2019-01-14T04:36:25.135Z,0.00
2019-01-14T04:37:25.036Z,0.00
2019-01-14T04:38:25.209Z,0.00
2019-01-14T04:39:24.873Z,0.00
2019-01-14T04:40:24.785Z,0.00
2019-01-14T04:41:24.698Z,0.00
2019-01-14T04:42:24.611Z,0.00
2019-01-14T04:43:24.535Z,0.00
2019-01-14T04:44:24.435Z,0.00
2019-01-14T04:45:24.350Z,0.00
2019-01-14T04:46:24.263Z,0.00
2019-01-14T04:47:24.186Z,0.00
2019-01-14T04:48:24.100Z,0.00
2019-01-14T04:49:24.022Z,0.00
2019-01-14T04:50:23.924Z,0.00
2019-01-14T04:51:23.848Z,0.00
2019-01-14T04:52:23.751Z,0.00
2019-01-14T04:53:23.662Z,0.00
2019-01-14T04:54:23.575Z,0.00
2019-01-14T04:55:23.487Z,0.00
2019-01-14T04:56:23.402Z,0.00
2019-01-14T04:57:23.326Z,0.00
2019-01-14T04:58:23.225Z,0.00
2019-01-14T04:59:23.153Z,0.00
2019-01-14T05:00:23.062Z,0.00
2019-01-14T05:01:22.976Z,0.00
2019-01-14T05:02:22.887Z,0.00
2019-01-14T05:03:22.801Z,0.00
2019-01-14T05:04:22.711Z,0.00
2019-01-14T05:05:22.626Z,0.00
2019-01-14T05:06:22.537Z,0.00
2019-01-14T05:07:29.310Z,0.00
2019-01-14T05:08:22.364Z,0.00
2019-01-14T05:09:22.276Z,0.00
2019-01-14T05:10:22.187Z,0.00
2019-01-14T05:11:22.102Z,0.00
2019-01-14T05:12:22.023Z,0.00
2019-01-14T05:13:21.926Z,0.00
2019-01-14T05:14:21.859Z,0.00
2019-01-14T05:15:21.768Z,0.00
2019-01-14T05:16:21.682Z,0.00
2019-01-14T05:17:21.588Z,0.00
2019-01-14T05:18:21.751Z,0.00
2019-01-14T05:19:21.413Z,0.00
2019-01-14T05:20:21.339Z,0.00
2019-01-14T05:21:21.239Z,0.00
2019-01-14T05:22:21.152Z,0.00
2019-01-14T05:23:21.065Z,0.00
2019-01-14T05:24:20.977Z,0.00
2019-01-14T05:25:20.889Z,0.00
2019-01-14T05:26:20.804Z,0.00
2019-01-14T05:27:20.716Z,0.00
2019-01-14T05:28:20.628Z,0.00
2019-01-14T05:29:20.540Z,0.00
2019-01-14T05:30:20.465Z,0.00
2019-01-14T05:31:20.378Z,0.00
2019-01-14T05:32:20.293Z,0.00
2019-01-14T05:33:20.204Z,0.00
2019-01-14T05:34:20.115Z,0.00
2019-01-14T05:35:20.030Z,0.00
2019-01-14T05:36:19.954Z,0.00
2019-01-14T05:37:19.854Z,0.00
2019-01-14T05:38:19.766Z,0.00
2019-01-14T05:39:19.679Z,0.00
2019-01-14T05:40:19.591Z,0.00
2019-01-14T05:41:19.505Z,0.00
2019-01-14T05:42:19.425Z,0.00
2019-01-14T05:43:19.329Z,0.00
2019-01-14T05:44:19.254Z,0.00
2019-01-14T05:45:19.166Z,0.00
2019-01-14T05:46:19.081Z,0.00
2019-01-14T05:47:19.008Z,0.00
2019-01-14T05:48:18.906Z,0.00
2019-01-14T05:49:18.818Z,0.00
2019-01-14T05:50:18.735Z,0.00
2019-01-14T05:51:18.643Z,0.00
2019-01-14T05:52:18.554Z,0.00
2019-01-14T05:53:18.467Z,0.00
2019-01-14T05:54:18.388Z,0.00
2019-01-14T05:55:18.293Z,0.00
2019-01-14T05:56:18.206Z,0.00
2019-01-14T05:57:18.118Z,0.00
2019-01-14T05:58:18.043Z,0.00
2019-01-14T05:59:17.955Z,0.00
2019-01-14T06:00:17.868Z,0.00
2019-01-14T06:01:17.783Z,0.00
2019-01-14T06:02:17.730Z,0.00
2019-01-14T06:03:17.607Z,0.00
2019-01-14T06:04:17.518Z,0.00
2019-01-14T06:05:17.439Z,0.00
2019-01-14T06:06:17.344Z,0.00
2019-01-14T06:07:17.256Z,0.00
2019-01-14T06:08:17.168Z,0.00
2019-01-14T06:09:17.082Z,0.00
2019-01-14T06:10:17.000Z,0.00
2019-01-14T06:11:16.919Z,0.00
2019-01-14T06:12:16.833Z,0.00
2019-01-14T06:13:16.744Z,0.00
2019-01-14T06:14:16.657Z,0.00
2019-01-14T06:15:16.571Z,0.00
2019-01-14T06:16:18.354Z,0.00
2019-01-14T06:17:16.395Z,0.00
2019-01-14T06:18:16.309Z,0.00
2019-01-14T06:19:16.234Z,0.00
2019-01-14T06:20:16.135Z,0.00
2019-01-14T06:21:16.045Z,0.00
2019-01-14T06:22:15.959Z,0.00
2019-01-14T06:23:15.870Z,0.00
2019-01-14T06:24:15.786Z,0.00
2019-01-14T06:25:15.704Z,0.00
2019-01-14T06:26:15.609Z,0.00
2019-01-14T06:27:15.534Z,0.00
2019-01-14T06:28:15.448Z,0.00
2019-01-14T06:29:15.364Z,0.00
2019-01-14T06:30:15.284Z,0.00
2019-01-14T06:31:15.187Z,0.00
2019-01-14T06:32:15.096Z,0.00
2019-01-14T06:33:15.010Z,0.00
2019-01-14T06:34:14.923Z,0.00
2019-01-14T06:35:14.836Z,0.00
2019-01-14T06:36:14.747Z,0.00
2019-01-14T06:37:14.664Z,4.00
2019-01-14T06:38:14.573Z,4.00
2019-01-14T06:39:14.486Z,0.00
2019-01-14T06:40:14.399Z,4.00
2019-01-14T06:41:14.310Z,4.00
2019-01-14T06:42:14.223Z,4.00
2019-01-14T06:43:14.135Z,4.00
2019-01-14T06:44:14.048Z,4.00
2019-01-14T06:45:13.972Z,8.00
2019-01-14T06:46:13.873Z,8.00
2019-01-14T06:47:13.813Z,12.00
2019-01-14T06:48:13.712Z,16.00
2019-01-14T06:49:13.623Z,16.00
2019-01-14T06:50:13.536Z,16.00
2019-01-14T06:51:13.449Z,16.00
2019-01-14T06:52:13.361Z,12.00
2019-01-14T06:53:13.274Z,16.00
2019-01-14T06:54:13.189Z,16.00
2019-01-14T06:55:13.100Z,16.00
2019-01-14T06:56:13.013Z,16.00
2019-01-14T06:57:12.924Z,16.00
2019-01-14T06:58:13.087Z,28.00
2019-01-14T06:59:12.765Z,20.00
2019-01-14T07:00:12.662Z,24.00
2019-01-14T07:01:12.576Z,28.00
2019-01-14T07:02:12.490Z,40.00
2019-01-14T07:03:12.400Z,56.00
2019-01-14T07:04:12.313Z,64.00
2019-01-14T07:05:12.226Z,68.00
2019-01-14T07:06:12.139Z,76.00
2019-01-14T07:07:12.063Z,92.00
2019-01-14T07:08:11.977Z,112.00
2019-01-14T07:09:11.889Z,128.00
2019-01-14T07:10:11.801Z,140.00
2019-01-14T07:11:11.714Z,144.00
2019-01-14T07:12:11.626Z,152.00
2019-01-14T07:13:11.542Z,160.00
2019-01-14T07:14:11.457Z,172.00
2019-01-14T07:15:11.365Z,184.00
2019-01-14T07:16:11.289Z,200.00
2019-01-14T07:17:11.189Z,212.00
2019-01-14T07:18:11.101Z,232.00
2019-01-14T07:19:11.021Z,256.00
2019-01-14T07:20:10.934Z,280.00
2019-01-14T07:21:10.851Z,308.00
2019-01-14T07:22:10.752Z,332.00
2019-01-14T07:23:10.679Z,348.00
2019-01-14T07:24:10.590Z,360.00
2019-01-14T07:25:10.502Z,356.00
2019-01-14T07:26:10.417Z,364.00
2019-01-14T07:27:10.327Z,380.00
2019-01-14T07:28:10.244Z,396.00
2019-01-14T07:29:10.154Z,416.00
2019-01-14T07:30:10.069Z,428.00
2019-01-14T07:31:09.978Z,432.00
2019-01-14T07:32:09.893Z,428.00
2019-01-14T07:33:09.803Z,432.00
2019-01-14T07:34:09.718Z,444.00
2019-01-14T07:35:09.628Z,468.00
2019-01-14T07:36:09.540Z,516.00
2019-01-14T07:37:09.452Z,580.00
2019-01-14T07:38:09.369Z,636.00
2019-01-14T07:39:09.279Z,644.00
2019-01-14T07:40:09.197Z,608.00
2019-01-14T07:41:09.104Z,548.00
2019-01-14T07:42:09.018Z,512.00
2019-01-14T07:43:08.941Z,556.00
2019-01-14T07:44:08.853Z,616.00
2019-01-14T07:45:08.769Z,616.00
2019-01-14T07:46:08.679Z,672.00
2019-01-14T07:47:08.593Z,720.00
2019-01-14T07:48:08.504Z,784.00
2019-01-14T07:49:08.418Z,752.00
2019-01-14T07:50:08.329Z,764.00
2019-01-14T07:51:08.243Z,824.00
2019-01-14T07:52:08.154Z,884.00
2019-01-14T07:53:08.071Z,948.00
2019-01-14T07:54:07.980Z,972.00
2019-01-14T07:55:07.896Z,996.00
2019-01-14T07:56:07.807Z,1020.00
2019-01-14T07:57:07.719Z,1084.00
2019-01-14T07:58:07.881Z,1132.00
2019-01-14T07:59:07.543Z,1172.00
2019-01-14T08:00:07.468Z,1244.00
2019-01-14T08:01:07.388Z,1248.00
2019-01-14T08:02:07.295Z,1304.00
2019-01-14T08:03:07.206Z,1376.00
2019-01-14T08:04:07.119Z,1388.00
2019-01-14T08:05:07.031Z,1440.00
2019-01-14T08:06:06.979Z,1448.00
2019-01-14T08:07:06.862Z,1484.00
2019-01-14T08:08:13.696Z,1540.00
2019-01-14T08:09:06.682Z,1720.00
2019-01-14T08:10:06.595Z,1716.00
2019-01-14T08:11:06.507Z,1708.00
2019-01-14T08:12:06.420Z,1704.00
2019-01-14T08:13:06.332Z,1756.00
2019-01-14T08:14:06.245Z,1864.00
2019-01-14T08:15:06.158Z,1948.00
2019-01-14T08:16:06.084Z,1744.00
2019-01-14T08:17:05.996Z,1804.00
2019-01-14T08:18:05.908Z,2060.00
2019-01-14T08:19:05.820Z,2168.00
2019-01-14T08:20:05.732Z,1944.00
2019-01-14T08:21:05.645Z,2012.00
2019-01-14T08:22:05.558Z,2064.00
2019-01-14T08:23:05.471Z,1984.00
2019-01-14T08:24:05.383Z,2008.00
2019-01-14T08:25:05.298Z,2044.00
2019-01-14T08:26:05.222Z,2044.00
2019-01-14T08:27:05.121Z,2052.00
2019-01-14T08:28:05.034Z,2068.00
2019-01-14T08:29:04.952Z,2028.00
2019-01-14T08:30:04.871Z,1980.00
2019-01-14T08:31:04.788Z,1976.00
2019-01-14T08:32:04.698Z,1964.00
2019-01-14T08:33:04.612Z,1984.00
2019-01-14T08:34:04.522Z,1944.00
2019-01-14T08:35:04.434Z,1904.00
2019-01-14T08:36:04.347Z,1836.00
2019-01-14T08:37:04.260Z,1776.00
2019-01-14T08:38:04.172Z,1812.00
2019-01-14T08:39:04.088Z,1900.00
2019-01-14T08:40:04.009Z,2000.00
2019-01-14T08:41:03.910Z,2064.00
2019-01-14T08:42:03.849Z,2172.00
2019-01-14T08:43:03.749Z,2252.00
2019-01-14T08:44:03.660Z,2276.00
2019-01-14T08:45:03.573Z,2272.00
2019-01-14T08:46:03.485Z,2224.00
2019-01-14T08:47:03.399Z,2212.00
2019-01-14T08:48:03.310Z,2144.00
2019-01-14T08:49:03.225Z,2076.00
2019-01-14T08:50:03.136Z,2000.00
2019-01-14T08:51:03.049Z,1972.00
2019-01-14T08:52:02.962Z,1876.00
2019-01-14T08:53:02.885Z,1656.00
2019-01-14T08:54:02.799Z,1556.00
2019-01-14T08:55:02.711Z,1472.00
2019-01-14T08:56:02.624Z,1404.00
2019-01-14T08:57:02.538Z,1400.00
2019-01-14T08:58:02.450Z,1380.00
2019-01-14T08:59:02.364Z,1352.00
2019-01-14T09:00:02.276Z,1288.00
2019-01-14T09:01:02.200Z,1300.00
2019-01-14T09:02:02.099Z,1284.00
2019-01-14T09:03:02.017Z,1264.00
2019-01-14T09:04:01.929Z,1284.00
2019-01-14T09:05:01.841Z,1312.00
2019-01-14T09:06:01.762Z,1360.00
2019-01-14T09:07:01.676Z,1400.00
2019-01-14T09:08:01.587Z,1384.00
2019-01-14T09:09:01.504Z,1428.00
2019-01-14T09:10:01.413Z,1488.00
2019-01-14T09:11:01.326Z,1560.00
2019-01-14T09:12:01.238Z,1708.00
2019-01-14T09:13:01.151Z,1700.00
2019-01-14T09:14:01.064Z,1596.00
2019-01-14T09:15:00.987Z,1536.00
2019-01-14T09:16:00.889Z,1616.00
2019-01-14T09:17:00.802Z,1888.00
2019-01-14T09:18:02.876Z,2152.00
2019-01-14T09:19:00.640Z,2176.00
2019-01-14T09:20:00.552Z,2276.00
2019-01-14T09:21:00.465Z,2296.00
2019-01-14T09:22:00.377Z,2272.00
2019-01-14T09:23:00.289Z,2216.00
2019-01-14T09:24:00.205Z,2196.00
2019-01-14T09:25:00.234Z,2028.00
2019-01-14T09:26:00.027Z,2136.00
2019-01-14T09:26:59.939Z,2112.00
2019-01-14T09:27:59.855Z,2092.00
2019-01-14T09:28:59.778Z,2068.00
2019-01-14T09:29:59.690Z,2044.00
2019-01-14T09:30:59.606Z,2072.00
2019-01-14T09:31:59.515Z,2036.00
2019-01-14T09:32:59.430Z,2048.00
2019-01-14T09:33:59.341Z,2052.00
2019-01-14T09:34:59.254Z,2036.00
2019-01-14T09:35:59.222Z,2036.00
2019-01-14T09:36:59.092Z,2032.00
2019-01-14T09:37:59.005Z,2036.00
2019-01-14T09:38:58.918Z,2044.00
2019-01-14T09:39:58.829Z,2016.00
2019-01-14T09:40:58.741Z,2040.00
2019-01-14T09:41:58.654Z,2492.00
2019-01-14T09:42:58.566Z,2128.00
2019-01-14T09:43:58.480Z,2104.00
2019-01-14T09:44:58.395Z,2064.00
2019-01-14T09:45:58.317Z,2092.00
2019-01-14T09:46:58.239Z,2076.00
2019-01-14T09:47:58.144Z,2088.00
2019-01-14T09:48:58.055Z,2088.00
2019-01-14T09:49:57.967Z,2092.00
2019-01-14T09:50:57.881Z,2152.00
2019-01-14T09:51:57.793Z,2348.00
2019-01-14T09:52:57.717Z,2120.00
2019-01-14T09:53:57.630Z,2144.00
2019-01-14T09:54:57.542Z,2188.00
2019-01-14T09:55:57.457Z,2148.00
2019-01-14T09:56:57.373Z,2172.00
2019-01-14T09:57:57.281Z,2164.00
2019-01-14T09:58:57.193Z,2232.00
2019-01-14T09:59:57.107Z,2580.00
2019-01-14T10:00:57.019Z,2308.00
2019-01-14T10:01:56.943Z,2304.00
2019-01-14T10:02:57.107Z,2312.00
2019-01-14T10:03:56.782Z,2636.00
2019-01-14T10:04:56.683Z,2504.00
2019-01-14T10:05:56.594Z,2468.00
2019-01-14T10:06:56.507Z,2252.00
2019-01-14T10:07:56.419Z,2544.00
2019-01-14T10:08:56.332Z,2544.00
2019-01-14T10:09:56.245Z,2536.00
2019-01-14T10:10:56.169Z,2748.00
2019-01-14T10:11:56.083Z,2652.00
2019-01-14T10:12:55.996Z,2836.00
2019-01-14T10:13:55.908Z,2896.00
2019-01-14T10:14:55.820Z,2728.00
2019-01-14T10:15:55.733Z,2804.00
2019-01-14T10:16:55.646Z,2912.00
2019-01-14T10:17:55.822Z,3040.00
2019-01-14T10:18:55.483Z,2468.00
2019-01-14T10:19:55.408Z,3264.00
2019-01-14T10:20:55.310Z,3208.00
2019-01-14T10:21:55.221Z,3480.00
2019-01-14T10:22:55.134Z,3552.00
2019-01-14T10:23:55.045Z,2536.00
2019-01-14T10:24:54.968Z,3348.00
2019-01-14T10:25:54.873Z,3304.00
2019-01-14T10:26:54.796Z,3276.00
2019-01-14T10:27:54.709Z,3124.00
2019-01-14T10:28:54.620Z,3256.00
2019-01-14T10:29:54.537Z,3576.00
2019-01-14T10:30:54.459Z,3492.00
2019-01-14T10:31:54.361Z,4516.00
2019-01-14T10:32:54.286Z,5220.00
2019-01-14T10:33:54.199Z,4808.00
2019-01-14T10:34:54.111Z,4628.00
2019-01-14T10:35:54.022Z,4032.00
2019-01-14T10:36:53.935Z,3956.00
2019-01-14T10:37:53.850Z,2012.00
2019-01-14T10:38:53.773Z,3588.00
2019-01-14T10:39:53.686Z,4628.00
2019-01-14T10:40:53.598Z,2480.00
2019-01-14T10:41:53.511Z,3380.00
2019-01-14T10:42:53.436Z,3448.00
2019-01-14T10:43:53.349Z,3344.00
2019-01-14T10:44:53.261Z,3372.00
2019-01-14T10:45:53.174Z,3364.00
2019-01-14T10:46:53.086Z,2448.00
2019-01-14T10:47:53.011Z,3664.00
2019-01-14T10:48:52.924Z,3568.00
2019-01-14T10:49:52.837Z,3492.00
2019-01-14T10:50:52.748Z,3748.00
2019-01-14T10:51:52.687Z,3772.00
2019-01-14T10:52:52.586Z,3764.00
2019-01-14T10:53:52.499Z,3820.00
2019-01-14T10:54:52.413Z,4428.00
2019-01-14T10:55:52.325Z,4704.00
2019-01-14T10:56:52.249Z,4072.00
2019-01-14T10:57:52.164Z,3920.00
2019-01-14T10:58:52.075Z,3908.00
2019-01-14T10:59:52.001Z,3856.00
2019-01-14T11:00:51.913Z,3852.00
2019-01-14T11:01:51.825Z,4016.00
2019-01-14T11:02:51.738Z,4708.00
2019-01-14T11:03:51.663Z,4464.00
2019-01-14T11:04:51.575Z,5016.00
2019-01-14T11:05:51.490Z,4840.00
2019-01-14T11:06:51.402Z,3224.00
2019-01-14T11:07:51.328Z,2752.00
2019-01-14T11:08:57.427Z,2836.00
2019-01-14T11:09:51.154Z,2512.00
2019-01-14T11:10:51.076Z,2684.00
2019-01-14T11:11:50.989Z,3904.00
2019-01-14T11:12:50.901Z,4384.00
2019-01-14T11:13:50.826Z,3408.00
2019-01-14T11:14:50.751Z,3340.00
2019-01-14T11:15:50.651Z,2836.00
2019-01-14T11:16:50.590Z,2836.00
2019-01-14T11:17:50.740Z,2460.00
2019-01-14T11:18:50.403Z,2356.00
2019-01-14T11:19:50.316Z,3244.00
2019-01-14T11:20:50.241Z,4952.00
2019-01-14T11:21:50.152Z,4844.00
2019-01-14T11:22:50.065Z,2740.00
2019-01-14T11:23:49.990Z,4140.00
2019-01-14T11:24:49.958Z,2464.00
2019-01-14T11:25:49.815Z,3388.00
2019-01-14T11:26:49.727Z,5376.00
2019-01-14T11:27:49.652Z,3644.00
2019-01-14T11:28:49.567Z,2928.00
2019-01-14T11:29:49.491Z,4040.00
2019-01-14T11:30:49.392Z,3372.00
2019-01-14T11:31:49.316Z,2524.00
2019-01-14T11:32:49.234Z,2096.00
2019-01-14T11:33:49.142Z,4180.00
2019-01-14T11:34:49.054Z,4348.00
2019-01-14T11:35:48.993Z,4748.00
2019-01-14T11:36:48.895Z,6932.00
2019-01-14T11:37:48.805Z,6936.00
2019-01-14T11:38:48.716Z,5996.00
2019-01-14T11:39:48.642Z,6676.00
2019-01-14T11:40:48.554Z,6516.00
2019-01-14T11:41:48.468Z,5980.00
2019-01-14T11:42:48.393Z,5424.00
2019-01-14T11:43:48.306Z,5692.00
2019-01-14T11:44:48.221Z,5736.00
2019-01-14T11:45:48.129Z,5220.00
2019-01-14T11:46:48.054Z,5336.00
2019-01-14T11:47:47.967Z,4920.00
2019-01-14T11:48:47.894Z,5092.00
2019-01-14T11:49:47.794Z,4176.00
2019-01-14T11:50:47.707Z,4544.00
2019-01-14T11:51:47.631Z,3624.00
2019-01-14T11:52:47.544Z,3336.00
2019-01-14T11:53:47.455Z,4076.00
2019-01-14T11:54:47.370Z,4620.00
2019-01-14T11:55:47.294Z,4560.00
2019-01-14T11:56:47.206Z,4284.00
2019-01-14T11:57:47.119Z,4144.00
2019-01-14T11:58:47.031Z,3544.00
2019-01-14T11:59:46.957Z,3744.00
2019-01-14T12:00:46.870Z,3204.00
2019-01-14T12:01:46.785Z,3152.00
2019-01-14T12:02:46.695Z,3384.00
2019-01-14T12:03:46.606Z,3276.00
2019-01-14T12:04:46.521Z,2740.00
2019-01-14T12:05:46.445Z,2476.00
2019-01-14T12:06:46.360Z,3716.00
2019-01-14T12:07:46.272Z,4208.00
2019-01-14T12:08:46.183Z,3968.00
2019-01-14T12:09:46.095Z,3828.00
2019-01-14T12:10:46.008Z,3692.00
2019-01-14T12:11:45.936Z,3504.00
2019-01-14T12:12:45.848Z,3696.00
2019-01-14T12:13:45.758Z,3876.00
2019-01-14T12:14:45.672Z,3648.00
2019-01-14T12:15:45.584Z,3252.00
2019-01-14T12:16:45.497Z,3216.00
2019-01-14T12:17:45.421Z,3324.00
2019-01-14T12:18:45.334Z,3672.00
2019-01-14T12:19:45.248Z,3988.00
2019-01-14T12:20:45.172Z,4072.00
2019-01-14T12:21:45.072Z,4240.00
2019-01-14T12:22:44.985Z,4412.00
2019-01-14T12:23:44.909Z,4360.00
2019-01-14T12:24:44.823Z,4248.00
2019-01-14T12:25:44.736Z,4172.00
2019-01-14T12:26:44.648Z,4304.00
2019-01-14T12:27:44.572Z,4388.00
2019-01-14T12:28:44.472Z,4592.00
2019-01-14T12:29:44.400Z,4456.00
2019-01-14T12:30:44.310Z,4540.00
2019-01-14T12:31:44.224Z,4540.00
2019-01-14T12:32:44.148Z,4480.00
2019-01-14T12:33:44.050Z,4320.00
2019-01-14T12:34:43.961Z,4264.00
2019-01-14T12:35:43.874Z,4176.00
2019-01-14T12:36:43.786Z,4096.00
2019-01-14T12:37:44.010Z,3944.00
2019-01-14T12:38:43.623Z,3788.00
2019-01-14T12:39:43.537Z,3528.00
2019-01-14T12:40:43.449Z,3612.00
2019-01-14T12:41:43.373Z,3764.00
2019-01-14T12:42:43.274Z,3744.00
2019-01-14T12:43:43.188Z,3724.00
2019-01-14T12:44:43.112Z,3732.00